sensor_id;sensor_type;location;lat;lon;timestamp;temperature;humidity
68098;DHT22;54886;47.036;15.466;2022-09-16T00:01:58;18.51;80.53
68098;DHT22;54886;47.036;15.466;2022-09-16T00:04:25;18.45;84.03
68098;DHT22;54886;47.036;15.466;2022-09-16T00:06:50;18.45;81.23
68098;DHT22;54886;47.036;15.466;2022-09-16T00:09:16;18.45;83.39
68098;DHT22;54886;47.036;15.466;2022-09-16T00:11:41;18.47;83.04
68098;DHT22;54886;47.036;15.466;2022-09-16T00:14:06;18.47;82.61
68098;DHT22;54886;47.036;15.466;2022-09-16T00:16:32;18.45;83.36
68098;DHT22;54886;47.036;15.466;2022-09-16T00:18:59;18.44;82.72
68098;DHT22;54886;47.036;15.466;2022-09-16T00:21:26;18.47;81.98
68098;DHT22;54886;47.036;15.466;2022-09-16T00:23:52;18.47;83.00
68098;DHT22;54886;47.036;15.466;2022-09-16T00:26:18;18.41;83.52
68098;DHT22;54886;47.036;15.466;2022-09-16T00:28:47;18.43;84.11
68098;DHT22;54886;47.036;15.466;2022-09-16T00:31:13;18.40;83.72
68098;DHT22;54886;47.036;15.466;2022-09-16T00:33:38;18.41;81.80
68098;DHT22;54886;47.036;15.466;2022-09-16T00:36:06;18.40;82.31
68098;DHT22;54886;47.036;15.466;2022-09-16T00:38:33;18.41;82.22
68098;DHT22;54886;47.036;15.466;2022-09-16T00:40:58;18.43;82.99
68098;DHT22;54886;47.036;15.466;2022-09-16T00:43:23;18.40;84.18
68098;DHT22;54886;47.036;15.466;2022-09-16T00:45:56;18.40;83.59
68098;DHT22;54886;47.036;15.466;2022-09-16T00:48:25;18.37;84.13
68098;DHT22;54886;47.036;15.466;2022-09-16T00:51:02;18.38;83.00
68098;DHT22;54886;47.036;15.466;2022-09-16T00:53:36;18.40;83.54
68098;DHT22;54886;47.036;15.466;2022-09-16T00:56:05;18.38;83.88
68098;DHT22;54886;47.036;15.466;2022-09-16T01:01:02;18.38;82.20
68098;DHT22;54886;47.036;15.466;2022-09-16T01:03:29;18.40;81.23
68098;DHT22;54886;47.036;15.466;2022-09-16T01:05:55;18.40;81.54
68098;DHT22;54886;47.036;15.466;2022-09-16T01:08:21;18.38;81.33
68098;DHT22;54886;47.036;15.466;2022-09-16T01:10:46;18.38;80.69
68098;DHT22;54886;47.036;15.466;2022-09-16T01:13:14;18.36;80.98
68098;DHT22;54886;47.036;15.466;2022-09-16T01:18:44;18.36;81.37
68098;DHT22;54886;47.036;15.466;2022-09-16T01:21:21;18.37;83.07
68098;DHT22;54886;47.036;15.466;2022-09-16T01:29:58;18.31;81.24
68098;DHT22;54886;47.036;15.466;2022-09-16T01:32:38;18.29;83.82
68098;DHT22;54886;47.036;15.466;2022-09-16T01:38:25;18.30;80.47
68098;DHT22;54886;47.036;15.466;2022-09-16T01:41:29;18.33;81.56
68098;DHT22;54886;47.036;15.466;2022-09-16T01:44:18;18.31;83.33
68098;DHT22;54886;47.036;15.466;2022-09-16T01:49:25;18.33;80.81
68098;DHT22;54886;47.036;15.466;2022-09-16T01:52:07;18.33;82.91
68098;DHT22;54886;47.036;15.466;2022-09-16T01:54:42;18.33;82.83
68098;DHT22;54886;47.036;15.466;2022-09-16T01:57:18;18.33;80.76
68098;DHT22;54886;47.036;15.466;2022-09-16T01:59:56;18.26;84.23
68098;DHT22;54886;47.036;15.466;2022-09-16T02:02:44;18.27;84.53
68098;DHT22;54886;47.036;15.466;2022-09-16T02:05:23;18.24;83.28
68098;DHT22;54886;47.036;15.466;2022-09-16T02:08:16;18.26;84.12
68098;DHT22;54886;47.036;15.466;2022-09-16T02:10:46;18.27;81.31
68098;DHT22;54886;47.036;15.466;2022-09-16T02:13:20;18.24;81.62
68098;DHT22;54886;47.036;15.466;2022-09-16T02:15:50;18.24;81.51
68098;DHT22;54886;47.036;15.466;2022-09-16T02:18:22;18.21;84.05
68098;DHT22;54886;47.036;15.466;2022-09-16T02:20:50;18.30;82.51
68098;DHT22;54886;47.036;15.466;2022-09-16T02:23:20;18.27;81.92
68098;DHT22;54886;47.036;15.466;2022-09-16T02:25:48;18.27;83.24
68098;DHT22;54886;47.036;15.466;2022-09-16T02:28:24;18.26;83.76
68098;DHT22;54886;47.036;15.466;2022-09-16T02:30:54;18.26;81.96
68098;DHT22;54886;47.036;15.466;2022-09-16T02:33:22;18.24;83.87
68098;DHT22;54886;47.036;15.466;2022-09-16T02:35:49;18.21;84.28
68098;DHT22;54886;47.036;15.466;2022-09-16T02:38:40;18.18;83.53
68098;DHT22;54886;47.036;15.466;2022-09-16T02:41:06;18.18;83.81
68098;DHT22;54886;47.036;15.466;2022-09-16T02:43:33;18.17;84.19
68098;DHT22;54886;47.036;15.466;2022-09-16T02:46:36;18.12;85.00
68098;DHT22;54886;47.036;15.466;2022-09-16T02:49:16;18.13;83.03
68098;DHT22;54886;47.036;15.466;2022-09-16T02:51:58;18.17;81.22
68098;DHT22;54886;47.036;15.466;2022-09-16T02:57:04;18.14;84.28
68098;DHT22;54886;47.036;15.466;2022-09-16T02:59:31;18.14;84.87
68098;DHT22;54886;47.036;15.466;2022-09-16T03:01:58;18.09;84.08
68098;DHT22;54886;47.036;15.466;2022-09-16T03:04:23;18.12;83.22
68098;DHT22;54886;47.036;15.466;2022-09-16T03:06:49;18.10;84.46
68098;DHT22;54886;47.036;15.466;2022-09-16T03:09:16;18.09;84.21
68098;DHT22;54886;47.036;15.466;2022-09-16T03:14:41;18.07;85.10
68098;DHT22;54886;47.036;15.466;2022-09-16T03:22:32;18.00;84.19
68098;DHT22;54886;47.036;15.466;2022-09-16T03:25:12;17.97;84.02
68098;DHT22;54886;47.036;15.466;2022-09-16T03:27:49;17.96;84.00
68098;DHT22;54886;47.036;15.466;2022-09-16T03:30:16;17.97;81.64
68098;DHT22;54886;47.036;15.466;2022-09-16T03:32:56;17.99;83.16
68098;DHT22;54886;47.036;15.466;2022-09-16T03:35:33;17.99;81.75
68098;DHT22;54886;47.036;15.466;2022-09-16T03:38:06;18.00;81.09
68098;DHT22;54886;47.036;15.466;2022-09-16T03:40:32;18.00;82.63
68098;DHT22;54886;47.036;15.466;2022-09-16T03:42:58;18.00;82.22
68098;DHT22;54886;47.036;15.466;2022-09-16T03:45:24;17.95;83.80
68098;DHT22;54886;47.036;15.466;2022-09-16T03:47:51;17.97;83.33
68098;DHT22;54886;47.036;15.466;2022-09-16T03:50:18;17.97;80.96
68098;DHT22;54886;47.036;15.466;2022-09-16T03:52:44;17.97;83.88
68098;DHT22;54886;47.036;15.466;2022-09-16T03:55:10;17.95;83.03
68098;DHT22;54886;47.036;15.466;2022-09-16T03:57:36;17.95;83.39
68098;DHT22;54886;47.036;15.466;2022-09-16T04:00:04;17.95;82.34
68098;DHT22;54886;47.036;15.466;2022-09-16T04:02:30;17.96;81.64
68098;DHT22;54886;47.036;15.466;2022-09-16T04:04:56;17.92;84.27
68098;DHT22;54886;47.036;15.466;2022-09-16T04:07:21;17.89;84.17
68098;DHT22;54886;47.036;15.466;2022-09-16T04:09:46;17.89;84.52
68098;DHT22;54886;47.036;15.466;2022-09-16T04:12:12;17.90;81.99
68098;DHT22;54886;47.036;15.466;2022-09-16T04:14:37;17.89;82.29
68098;DHT22;54886;47.036;15.466;2022-09-16T04:17:03;17.92;81.41
68098;DHT22;54886;47.036;15.466;2022-09-16T04:19:28;17.92;81.32
68098;DHT22;54886;47.036;15.466;2022-09-16T04:21:54;17.93;80.98
68098;DHT22;54886;47.036;15.466;2022-09-16T04:24:19;17.92;82.43
68098;DHT22;54886;47.036;15.466;2022-09-16T04:26:45;17.92;80.93
68098;DHT22;54886;47.036;15.466;2022-09-16T04:29:10;17.89;81.01
68098;DHT22;54886;47.036;15.466;2022-09-16T04:31:36;17.93;82.92
68098;DHT22;54886;47.036;15.466;2022-09-16T04:34:03;17.96;80.94
68098;DHT22;54886;47.036;15.466;2022-09-16T04:36:29;17.92;84.49
68098;DHT22;54886;47.036;15.466;2022-09-16T04:38:54;17.89;83.82
68098;DHT22;54886;47.036;15.466;2022-09-16T04:41:22;17.92;81.12
68098;DHT22;54886;47.036;15.466;2022-09-16T04:43:53;17.89;83.39
68098;DHT22;54886;47.036;15.466;2022-09-16T04:46:20;17.90;84.04
68098;DHT22;54886;47.036;15.466;2022-09-16T04:48:47;17.93;84.08
68098;DHT22;54886;47.036;15.466;2022-09-16T04:51:13;17.93;82.45
68098;DHT22;54886;47.036;15.466;2022-09-16T04:53:39;17.93;82.04
68098;DHT22;54886;47.036;15.466;2022-09-16T04:58:42;17.93;82.01
68098;DHT22;54886;47.036;15.466;2022-09-16T05:01:09;17.96;83.11
68098;DHT22;54886;47.036;15.466;2022-09-16T05:03:41;17.93;84.42
68098;DHT22;54886;47.036;15.466;2022-09-16T05:06:10;17.92;83.87
68098;DHT22;54886;47.036;15.466;2022-09-16T05:08:36;17.92;84.37
68098;DHT22;54886;47.036;15.466;2022-09-16T05:11:06;17.92;82.80
68098;DHT22;54886;47.036;15.466;2022-09-16T05:13:32;17.87;82.68
68098;DHT22;54886;47.036;15.466;2022-09-16T05:16:02;17.89;81.55
68098;DHT22;54886;47.036;15.466;2022-09-16T05:18:28;17.81;81.26
68098;DHT22;54886;47.036;15.466;2022-09-16T05:20:58;17.75;81.05
68098;DHT22;54886;47.036;15.466;2022-09-16T05:23:24;17.68;80.85
68098;DHT22;54886;47.036;15.466;2022-09-16T05:25:50;17.65;82.15
68098;DHT22;54886;47.036;15.466;2022-09-16T05:28:15;17.65;82.81
68098;DHT22;54886;47.036;15.466;2022-09-16T05:30:41;17.59;82.92
68098;DHT22;54886;47.036;15.466;2022-09-16T05:33:06;17.61;82.54
68098;DHT22;54886;47.036;15.466;2022-09-16T05:35:32;17.55;82.99
68098;DHT22;54886;47.036;15.466;2022-09-16T05:37:57;17.57;83.26
68098;DHT22;54886;47.036;15.466;2022-09-16T05:40:23;17.57;83.34
68098;DHT22;54886;47.036;15.466;2022-09-16T05:42:51;17.57;83.55
68098;DHT22;54886;47.036;15.466;2022-09-16T05:45:16;17.57;83.08
68098;DHT22;54886;47.036;15.466;2022-09-16T05:47:48;17.50;83.97
68098;DHT22;54886;47.036;15.466;2022-09-16T05:50:14;17.50;83.66
68098;DHT22;54886;47.036;15.466;2022-09-16T05:52:40;17.47;83.79
68098;DHT22;54886;47.036;15.466;2022-09-16T05:55:05;17.48;83.71
68098;DHT22;54886;47.036;15.466;2022-09-16T05:57:31;17.50;83.50
68098;DHT22;54886;47.036;15.466;2022-09-16T05:59:56;17.42;85.04
68098;DHT22;54886;47.036;15.466;2022-09-16T06:02:22;17.42;85.01
68098;DHT22;54886;47.036;15.466;2022-09-16T06:04:47;17.42;84.89
68098;DHT22;54886;47.036;15.466;2022-09-16T06:07:13;17.41;84.35
68098;DHT22;54886;47.036;15.466;2022-09-16T06:09:38;17.47;84.17
68098;DHT22;54886;47.036;15.466;2022-09-16T06:12:04;17.47;84.82
68098;DHT22;54886;47.036;15.466;2022-09-16T06:14:29;17.44;84.52
68098;DHT22;54886;47.036;15.466;2022-09-16T06:16:55;17.40;84.41
68098;DHT22;54886;47.036;15.466;2022-09-16T06:19:21;17.41;83.81
68098;DHT22;54886;47.036;15.466;2022-09-16T06:21:46;17.37;83.77
68098;DHT22;54886;47.036;15.466;2022-09-16T06:24:14;17.34;83.57
68098;DHT22;54886;47.036;15.466;2022-09-16T06:26:41;17.33;83.39
68098;DHT22;54886;47.036;15.466;2022-09-16T06:29:07;17.33;82.53
68098;DHT22;54886;47.036;15.466;2022-09-16T06:31:34;17.30;82.62
68098;DHT22;54886;47.036;15.466;2022-09-16T06:34:00;17.27;83.30
68098;DHT22;54886;47.036;15.466;2022-09-16T06:36:32;17.12;83.57
68098;DHT22;54886;47.036;15.466;2022-09-16T06:38:58;17.16;83.54
68098;DHT22;54886;47.036;15.466;2022-09-16T06:41:24;17.19;83.26
68098;DHT22;54886;47.036;15.466;2022-09-16T06:43:50;17.17;83.02
68098;DHT22;54886;47.036;15.466;2022-09-16T06:46:18;17.07;83.95
68098;DHT22;54886;47.036;15.466;2022-09-16T06:48:49;17.10;84.00
68098;DHT22;54886;47.036;15.466;2022-09-16T06:51:17;17.06;84.75
68098;DHT22;54886;47.036;15.466;2022-09-16T06:53:44;17.09;83.81
68098;DHT22;54886;47.036;15.466;2022-09-16T06:56:13;17.07;84.73
68098;DHT22;54886;47.036;15.466;2022-09-16T06:58:41;17.09;83.85
68098;DHT22;54886;47.036;15.466;2022-09-16T07:01:07;17.09;83.41
68098;DHT22;54886;47.036;15.466;2022-09-16T07:03:36;17.07;83.51
68098;DHT22;54886;47.036;15.466;2022-09-16T07:06:02;17.10;84.08
68098;DHT22;54886;47.036;15.466;2022-09-16T07:08:28;17.03;84.38
68098;DHT22;54886;47.036;15.466;2022-09-16T07:10:58;17.04;83.83
68098;DHT22;54886;47.036;15.466;2022-09-16T07:13:24;17.06;84.28
68098;DHT22;54886;47.036;15.466;2022-09-16T07:15:50;17.04;84.70
68098;DHT22;54886;47.036;15.466;2022-09-16T07:18:15;17.02;84.48
68098;DHT22;54886;47.036;15.466;2022-09-16T07:20:41;17.04;84.46
68098;DHT22;54886;47.036;15.466;2022-09-16T07:23:06;16.97;84.94
68098;DHT22;54886;47.036;15.466;2022-09-16T07:25:31;16.97;84.83
68098;DHT22;54886;47.036;15.466;2022-09-16T07:27:57;16.99;84.24
68098;DHT22;54886;47.036;15.466;2022-09-16T07:30:22;17.03;84.06
68098;DHT22;54886;47.036;15.466;2022-09-16T07:32:48;17.02;84.31
68098;DHT22;54886;47.036;15.466;2022-09-16T07:35:13;17.03;84.49
68098;DHT22;54886;47.036;15.466;2022-09-16T07:37:39;16.97;84.73
68098;DHT22;54886;47.036;15.466;2022-09-16T07:40:05;16.96;84.77
68098;DHT22;54886;47.036;15.466;2022-09-16T07:42:30;16.97;84.12
68098;DHT22;54886;47.036;15.466;2022-09-16T07:44:56;16.90;84.45
68098;DHT22;54886;47.036;15.466;2022-09-16T07:47:21;16.93;84.07
68098;DHT22;54886;47.036;15.466;2022-09-16T07:49:47;16.89;84.69
68098;DHT22;54886;47.036;15.466;2022-09-16T07:52:13;16.83;85.20
68098;DHT22;54886;47.036;15.466;2022-09-16T07:54:39;16.87;84.98
68098;DHT22;54886;47.036;15.466;2022-09-16T07:57:04;16.86;85.23
68098;DHT22;54886;47.036;15.466;2022-09-16T07:59:29;16.86;85.03
68098;DHT22;54886;47.036;15.466;2022-09-16T08:01:55;16.89;84.36
68098;DHT22;54886;47.036;15.466;2022-09-16T08:04:20;16.89;84.88
68098;DHT22;54886;47.036;15.466;2022-09-16T08:06:47;16.92;84.58
68098;DHT22;54886;47.036;15.466;2022-09-16T08:09:12;16.89;83.92
68098;DHT22;54886;47.036;15.466;2022-09-16T08:11:39;16.85;84.68
68098;DHT22;54886;47.036;15.466;2022-09-16T08:14:04;16.83;84.01
68098;DHT22;54886;47.036;15.466;2022-09-16T08:16:30;16.87;83.84
68098;DHT22;54886;47.036;15.466;2022-09-16T08:18:57;16.83;84.48
68098;DHT22;54886;47.036;15.466;2022-09-16T08:21:26;16.87;84.30
68098;DHT22;54886;47.036;15.466;2022-09-16T08:23:52;16.89;84.25
68098;DHT22;54886;47.036;15.466;2022-09-16T08:26:18;16.86;84.14
68098;DHT22;54886;47.036;15.466;2022-09-16T08:28:45;16.86;83.37
68098;DHT22;54886;47.036;15.466;2022-09-16T08:31:11;16.86;83.87
68098;DHT22;54886;47.036;15.466;2022-09-16T08:33:40;16.87;84.00
68098;DHT22;54886;47.036;15.466;2022-09-16T08:38:39;16.79;84.48
68098;DHT22;54886;47.036;15.466;2022-09-16T08:41:25;16.82;83.89
68098;DHT22;54886;47.036;15.466;2022-09-16T08:46:34;16.75;84.38
68098;DHT22;54886;47.036;15.466;2022-09-16T08:52:26;16.68;84.89
68098;DHT22;54886;47.036;15.466;2022-09-16T08:54:56;16.71;84.30
68098;DHT22;54886;47.036;15.466;2022-09-16T08:57:26;16.71;85.03
68098;DHT22;54886;47.036;15.466;2022-09-16T08:59:57;16.57;85.29
68098;DHT22;54886;47.036;15.466;2022-09-16T09:05:05;16.50;84.95
68098;DHT22;54886;47.036;15.466;2022-09-16T09:10:24;16.45;84.97
68098;DHT22;54886;47.036;15.466;2022-09-16T09:15:48;16.44;84.71
68098;DHT22;54886;47.036;15.466;2022-09-16T09:18:42;16.40;84.60
68098;DHT22;54886;47.036;15.466;2022-09-16T09:21:30;16.40;84.63
68098;DHT22;54886;47.036;15.466;2022-09-16T09:26:38;16.48;84.90
68098;DHT22;54886;47.036;15.466;2022-09-16T09:40:15;16.41;84.34
68098;DHT22;54886;47.036;15.466;2022-09-16T09:47:48;16.45;84.90
68098;DHT22;54886;47.036;15.466;2022-09-16T09:50:25;16.41;84.19
68098;DHT22;54886;47.036;15.466;2022-09-16T09:55:34;16.37;83.63
68098;DHT22;54886;47.036;15.466;2022-09-16T09:58:31;16.35;83.91
68098;DHT22;54886;47.036;15.466;2022-09-16T10:00:59;16.38;83.72
68098;DHT22;54886;47.036;15.466;2022-09-16T10:03:27;16.28;83.98
68098;DHT22;54886;47.036;15.466;2022-09-16T10:05:53;16.31;83.77
68098;DHT22;54886;47.036;15.466;2022-09-16T10:10:53;16.34;84.06
68098;DHT22;54886;47.036;15.466;2022-09-16T10:13:20;16.40;83.24
68098;DHT22;54886;47.036;15.466;2022-09-16T10:15:47;16.38;83.23
68098;DHT22;54886;47.036;15.466;2022-09-16T10:20:55;16.44;82.73
68098;DHT22;54886;47.036;15.466;2022-09-16T10:23:22;16.45;82.39
68098;DHT22;54886;47.036;15.466;2022-09-16T10:25:48;16.41;83.52
68098;DHT22;54886;47.036;15.466;2022-09-16T10:28:24;16.44;83.51
68098;DHT22;54886;47.036;15.466;2022-09-16T10:30:52;16.42;83.53
68098;DHT22;54886;47.036;15.466;2022-09-16T10:35:58;16.31;83.47
68098;DHT22;54886;47.036;15.466;2022-09-16T10:38:37;16.32;83.71
68098;DHT22;54886;47.036;15.466;2022-09-16T10:41:07;16.31;81.78
68098;DHT22;54886;47.036;15.466;2022-09-16T10:43:35;16.27;83.57
68098;DHT22;54886;47.036;15.466;2022-09-16T10:46:03;16.31;81.63
68098;DHT22;54886;47.036;15.466;2022-09-16T10:48:30;16.31;83.17
68098;DHT22;54886;47.036;15.466;2022-09-16T10:50:59;16.30;83.16
68098;DHT22;54886;47.036;15.466;2022-09-16T10:53:36;16.17;82.40
68098;DHT22;54886;47.036;15.466;2022-09-16T10:56:05;16.18;82.74
68098;DHT22;54886;47.036;15.466;2022-09-16T10:58:30;16.13;82.70
68098;DHT22;54886;47.036;15.466;2022-09-16T11:11:55;15.95;83.30
68098;DHT22;54886;47.036;15.466;2022-09-16T11:20:04;15.89;82.66
68098;DHT22;54886;47.036;15.466;2022-09-16T11:37:00;15.95;82.99
68098;DHT22;54886;47.036;15.466;2022-09-16T11:39:50;15.96;83.31
68098;DHT22;54886;47.036;15.466;2022-09-16T11:42:40;15.96;83.11
68098;DHT22;54886;47.036;15.466;2022-09-16T11:48:40;16.02;83.82
68098;DHT22;54886;47.036;15.466;2022-09-16T11:56:39;15.92;81.88
68098;DHT22;54886;47.036;15.466;2022-09-16T11:59:21;15.89;82.54
68098;DHT22;54886;47.036;15.466;2022-09-16T12:07:46;15.81;82.49
68098;DHT22;54886;47.036;15.466;2022-09-16T12:10:26;15.82;82.14
68098;DHT22;54886;47.036;15.466;2022-09-16T12:13:02;15.81;82.80
68098;DHT22;54886;47.036;15.466;2022-09-16T12:15:50;15.82;83.05
68098;DHT22;54886;47.036;15.466;2022-09-16T12:20:53;15.81;82.80
68098;DHT22;54886;47.036;15.466;2022-09-16T12:23:22;15.83;82.85
68098;DHT22;54886;47.036;15.466;2022-09-16T12:26:01;15.85;82.52
68098;DHT22;54886;47.036;15.466;2022-09-16T12:28:34;15.87;81.76
68098;DHT22;54886;47.036;15.466;2022-09-16T12:34:33;15.83;83.22
68098;DHT22;54886;47.036;15.466;2022-09-16T12:39:59;15.78;82.98
68098;DHT22;54886;47.036;15.466;2022-09-16T12:42:44;15.79;82.65
68098;DHT22;54886;47.036;15.466;2022-09-16T12:59:05;15.78;81.60
68098;DHT22;54886;47.036;15.466;2022-09-16T13:01:38;15.79;82.19
68098;DHT22;54886;47.036;15.466;2022-09-16T13:04:16;15.75;82.41
68098;DHT22;54886;47.036;15.466;2022-09-16T13:06:47;15.69;82.45
68098;DHT22;54886;47.036;15.466;2022-09-16T13:12:19;15.70;82.72
68098;DHT22;54886;47.036;15.466;2022-09-16T13:15:03;15.69;82.28
68098;DHT22;54886;47.036;15.466;2022-09-16T13:17:38;15.70;81.53
68098;DHT22;54886;47.036;15.466;2022-09-16T13:20:11;15.69;82.01
68098;DHT22;54886;47.036;15.466;2022-09-16T13:25:20;15.61;82.04
68098;DHT22;54886;47.036;15.466;2022-09-16T13:27:55;15.63;82.08
68098;DHT22;54886;47.036;15.466;2022-09-16T13:37:44;15.54;83.13
68098;DHT22;54886;47.036;15.466;2022-09-16T13:40:29;15.55;82.64
68098;DHT22;54886;47.036;15.466;2022-09-16T13:45:41;15.58;83.68
68098;DHT22;54886;47.036;15.466;2022-09-16T13:48:13;15.54;83.43
68098;DHT22;54886;47.036;15.466;2022-09-16T13:50:42;15.58;83.16
68098;DHT22;54886;47.036;15.466;2022-09-16T13:53:19;15.55;82.96
68098;DHT22;54886;47.036;15.466;2022-09-16T13:55:47;15.51;82.97
68098;DHT22;54886;47.036;15.466;2022-09-16T13:58:28;15.51;82.64
68098;DHT22;54886;47.036;15.466;2022-09-16T14:01:33;15.48;83.03
68098;DHT22;54886;47.036;15.466;2022-09-16T14:07:14;15.50;83.48
68098;DHT22;54886;47.036;15.466;2022-09-16T14:12:58;15.52;82.86
68098;DHT22;54886;47.036;15.466;2022-09-16T14:15:26;15.52;82.40
68098;DHT22;54886;47.036;15.466;2022-09-16T14:17:55;15.55;82.95
68098;DHT22;54886;47.036;15.466;2022-09-16T14:20:23;15.50;83.22
68098;DHT22;54886;47.036;15.466;2022-09-16T14:23:15;15.48;83.73
68098;DHT22;54886;47.036;15.466;2022-09-16T14:25:41;15.48;83.11
68098;DHT22;54886;47.036;15.466;2022-09-16T14:28:22;15.50;82.72
68098;DHT22;54886;47.036;15.466;2022-09-16T14:30:58;15.45;82.72
68098;DHT22;54886;47.036;15.466;2022-09-16T14:33:34;15.48;83.10
68098;DHT22;54886;47.036;15.466;2022-09-16T14:36:08;15.50;83.56
68098;DHT22;54886;47.036;15.466;2022-09-16T14:38:42;15.44;84.21
68098;DHT22;54886;47.036;15.466;2022-09-16T14:41:09;15.50;83.90
68098;DHT22;54886;47.036;15.466;2022-09-16T14:43:37;15.50;83.97
68098;DHT22;54886;47.036;15.466;2022-09-16T14:46:05;15.50;83.83
68098;DHT22;54886;47.036;15.466;2022-09-16T14:48:34;15.50;83.41
68098;DHT22;54886;47.036;15.466;2022-09-16T14:51:02;15.55;82.72
68098;DHT22;54886;47.036;15.466;2022-09-16T14:53:33;15.57;82.84
68098;DHT22;54886;47.036;15.466;2022-09-16T14:56:02;15.57;83.96
68098;DHT22;54886;47.036;15.466;2022-09-16T14:58:30;15.52;83.70
68098;DHT22;54886;47.036;15.466;2022-09-16T15:01:01;15.50;83.43
68098;DHT22;54886;47.036;15.466;2022-09-16T15:03:41;15.50;83.75
68098;DHT22;54886;47.036;15.466;2022-09-16T15:06:13;15.48;83.93
68098;DHT22;54886;47.036;15.466;2022-09-16T15:11:15;15.50;83.83
68098;DHT22;54886;47.036;15.466;2022-09-16T15:13:43;15.51;82.60
68098;DHT22;54886;47.036;15.466;2022-09-16T15:16:14;15.51;83.04
68098;DHT22;54886;47.036;15.466;2022-09-16T15:18:58;15.47;83.06
68098;DHT22;54886;47.036;15.466;2022-09-16T15:21:26;15.45;82.90
68098;DHT22;54886;47.036;15.466;2022-09-16T15:24:02;15.42;82.79
68098;DHT22;54886;47.036;15.466;2022-09-16T15:26:42;15.41;83.73
68098;DHT22;54886;47.036;15.466;2022-09-16T15:31:43;15.40;83.25
68098;DHT22;54886;47.036;15.466;2022-09-16T15:39:39;15.44;83.41
68098;DHT22;54886;47.036;15.466;2022-09-16T15:42:21;15.38;83.56
68098;DHT22;54886;47.036;15.466;2022-09-16T15:50:00;15.30;83.94
68098;DHT22;54886;47.036;15.466;2022-09-16T15:52:27;15.37;83.53
68098;DHT22;54886;47.036;15.466;2022-09-16T15:54:56;15.38;82.64
68098;DHT22;54886;47.036;15.466;2022-09-16T15:57:39;15.38;83.69
68098;DHT22;54886;47.036;15.466;2022-09-16T16:00:11;15.38;83.66
68098;DHT22;54886;47.036;15.466;2022-09-16T16:02:53;15.38;84.07
68098;DHT22;54886;47.036;15.466;2022-09-16T16:05:23;15.40;84.25
68098;DHT22;54886;47.036;15.466;2022-09-16T16:07:51;15.35;83.80
68098;DHT22;54886;47.036;15.466;2022-09-16T16:10:25;15.37;83.66
68098;DHT22;54886;47.036;15.466;2022-09-16T16:12:52;15.40;83.72
68098;DHT22;54886;47.036;15.466;2022-09-16T16:15:39;15.34;84.15
68098;DHT22;54886;47.036;15.466;2022-09-16T16:18:06;15.31;84.17
68098;DHT22;54886;47.036;15.466;2022-09-16T16:20:33;15.30;83.66
68098;DHT22;54886;47.036;15.466;2022-09-16T16:23:00;15.32;83.56
68098;DHT22;54886;47.036;15.466;2022-09-16T16:25:26;15.27;83.57
68098;DHT22;54886;47.036;15.466;2022-09-16T16:27:52;15.27;83.03
68098;DHT22;54886;47.036;15.466;2022-09-16T16:30:17;15.28;82.91
68098;DHT22;54886;47.036;15.466;2022-09-16T16:32:44;15.24;83.24
68098;DHT22;54886;47.036;15.466;2022-09-16T16:35:09;15.21;83.14
68098;DHT22;54886;47.036;15.466;2022-09-16T16:37:35;15.19;83.35
68098;DHT22;54886;47.036;15.466;2022-09-16T16:40:02;15.16;83.61
68098;DHT22;54886;47.036;15.466;2022-09-16T16:42:28;15.16;83.66
68098;DHT22;54886;47.036;15.466;2022-09-16T16:44:53;15.19;83.77
68098;DHT22;54886;47.036;15.466;2022-09-16T16:47:20;15.13;84.08
68098;DHT22;54886;47.036;15.466;2022-09-16T16:49:46;15.11;83.90
68098;DHT22;54886;47.036;15.466;2022-09-16T16:52:11;15.13;83.67
68098;DHT22;54886;47.036;15.466;2022-09-16T16:54:37;15.10;83.89
68098;DHT22;54886;47.036;15.466;2022-09-16T16:57:02;15.08;84.14
68098;DHT22;54886;47.036;15.466;2022-09-16T16:59:28;15.10;84.46
68098;DHT22;54886;47.036;15.466;2022-09-16T17:01:55;15.07;84.32
68098;DHT22;54886;47.036;15.466;2022-09-16T17:04:21;15.07;84.29
68098;DHT22;54886;47.036;15.466;2022-09-16T17:06:47;15.07;84.27
68098;DHT22;54886;47.036;15.466;2022-09-16T17:09:13;15.08;84.18
68098;DHT22;54886;47.036;15.466;2022-09-16T17:11:58;15.06;83.73
68098;DHT22;54886;47.036;15.466;2022-09-16T17:14:27;15.02;83.96
68098;DHT22;54886;47.036;15.466;2022-09-16T17:16:54;15.00;84.13
68098;DHT22;54886;47.036;15.466;2022-09-16T17:19:20;15.03;83.98
68098;DHT22;54886;47.036;15.466;2022-09-16T17:21:47;15.07;83.71
68098;DHT22;54886;47.036;15.466;2022-09-16T17:24:14;15.04;84.23
68098;DHT22;54886;47.036;15.466;2022-09-16T17:26:40;15.06;84.35
68098;DHT22;54886;47.036;15.466;2022-09-16T17:29:06;15.03;83.85
68098;DHT22;54886;47.036;15.466;2022-09-16T17:31:32;15.04;84.24
68098;DHT22;54886;47.036;15.466;2022-09-16T17:33:59;15.06;83.75
68098;DHT22;54886;47.036;15.466;2022-09-16T17:36:31;15.04;84.39
68098;DHT22;54886;47.036;15.466;2022-09-16T17:38:58;15.06;83.98
68098;DHT22;54886;47.036;15.466;2022-09-16T17:41:24;15.04;83.97
68098;DHT22;54886;47.036;15.466;2022-09-16T17:43:53;15.07;81.99
68098;DHT22;54886;47.036;15.466;2022-09-16T17:46:20;15.07;84.39
68098;DHT22;54886;47.036;15.466;2022-09-16T17:48:47;15.04;84.46
68098;DHT22;54886;47.036;15.466;2022-09-16T17:51:13;15.03;84.19
68098;DHT22;54886;47.036;15.466;2022-09-16T17:53:39;15.03;84.38
68098;DHT22;54886;47.036;15.466;2022-09-16T17:56:09;14.97;84.18
68098;DHT22;54886;47.036;15.466;2022-09-16T17:58:36;14.95;84.21
68098;DHT22;54886;47.036;15.466;2022-09-16T18:01:18;14.96;84.30
68098;DHT22;54886;47.036;15.466;2022-09-16T18:03:45;14.95;84.25
68098;DHT22;54886;47.036;15.466;2022-09-16T18:06:19;14.93;84.18
68098;DHT22;54886;47.036;15.466;2022-09-16T18:08:46;14.95;84.07
68098;DHT22;54886;47.036;15.466;2022-09-16T18:11:13;14.93;84.20
68098;DHT22;54886;47.036;15.466;2022-09-16T18:13:39;14.90;84.22
68098;DHT22;54886;47.036;15.466;2022-09-16T18:18:34;14.93;84.20
68098;DHT22;54886;47.036;15.466;2022-09-16T18:21:01;14.92;84.25
68098;DHT22;54886;47.036;15.466;2022-09-16T18:23:27;14.93;84.14
68098;DHT22;54886;47.036;15.466;2022-09-16T18:25:54;14.90;84.32
68098;DHT22;54886;47.036;15.466;2022-09-16T18:28:20;14.93;84.21
68098;DHT22;54886;47.036;15.466;2022-09-16T18:30:45;14.93;84.54
68098;DHT22;54886;47.036;15.466;2022-09-16T18:33:10;14.89;84.21
68098;DHT22;54886;47.036;15.466;2022-09-16T18:35:36;14.87;84.59
68098;DHT22;54886;47.036;15.466;2022-09-16T18:38:04;14.87;84.65